Time;durP1;ratioP1;P1;durP2;ratioP2;P2;SDS_P1;SDS_P2;PMS_P1;PMS_P2;Temp;Humidity;BMP_temperature;BMP_pressure;BME280_temperature;BME280_humidity;BME280_pressure;Samples;Min_cycle;Max_cycle;Signal;HPM_P1;HPM_P2
2024/02/23 00:00:47;;;;;;;0.85;0.40;;;;;;;-144.05;71.87;57044.25;5015585;28;20463;-81
2024/02/23 00:03:13;;;;;;;1.10;0.30;;;;;;;-144.05;72.34;57063.34;5014944;28;20030;-80
2024/02/23 00:05:39;;;;;;;0.40;0.40;;;;;;;-144.05;72.85;57061.22;5013564;28;20029;-79
2024/02/23 00:08:06;;;;;;;2.13;0.40;;;;;;;-144.05;73.61;57054.88;5011642;28;20056;-79
2024/02/23 00:10:33;;;;;;;0.20;0.20;;;;;;;-144.05;74.23;57067.59;5013958;28;20106;-77
2024/02/23 00:13:00;;;;;;;2.13;0.38;;;;;;;-144.05;74.51;57027.25;5013924;28;20084;-78
2024/02/23 00:15:27;;;;;;;1.60;0.50;;;;;;;-144.05;74.88;57040.00;5013678;28;20553;-77
2024/02/23 00:17:53;;;;;;;0.90;0.45;;;;;;;-144.05;74.02;57063.34;5013176;28;20107;-79
2024/02/23 00:20:19;;;;;;;0.50;0.38;;;6.50;99.90;;;-144.05;74.30;57067.59;5013635;28;20109;-78
2024/02/23 00:22:45;;;;;;;0.65;0.50;;;;;;;-144.05;73.65;57054.88;5012809;28;20025;-79
2024/02/23 00:25:11;;;;;;;0.65;0.50;;;;;;;-144.05;73.40;57029.38;5015664;28;20029;-77
2024/02/23 00:27:39;;;;;;;0.65;0.50;;;;;;;-144.05;73.13;57042.13;5011640;28;20021;-78
2024/02/23 00:30:06;;;;;;;1.20;0.47;;;;;;;-144.05;73.83;57023.00;5013429;28;20542;-78
2024/02/23 00:32:32;;;;;;;0.40;0.40;;;;;;;-144.05;74.02;57048.50;5012088;28;20399;-77
2024/02/23 00:34:59;;;;;;;1.55;0.45;;;;;;;-144.05;72.96;57044.25;5011971;28;20113;-78
2024/02/23 00:37:25;;;;;;;1.25;0.50;;;;;;;-144.05;72.59;57063.34;5011638;28;20129;-79
2024/02/23 00:39:51;;;;;;;0.30;0.25;;;;;;;-144.05;72.22;57069.72;5012173;28;20176;-80
2024/02/23 00:42:17;;;;;;;0.50;0.50;;;;;;;-144.05;71.97;57044.25;5011899;28;20026;-79
2024/02/23 00:44:44;;;;;;;1.20;0.50;;;;;;;-144.05;71.96;57061.22;5017988;28;20531;-82
2024/02/23 00:47:10;;;;;;;0.40;0.40;;;;;;;-144.05;71.62;57067.59;5018473;28;20036;-81
2024/02/23 00:49:36;;;;;;;0.50;0.47;;;6.90;99.90;;;-144.05;72.54;57067.59;5012332;28;20041;-80
2024/02/23 00:52:02;;;;;;;0.60;0.60;;;;;;;-144.05;74.88;57056.97;5007667;28;20030;-79
2024/02/23 00:54:28;;;;;;;0.50;0.40;;;;;;;-144.05;76.46;57052.75;5013145;28;20033;-79
2024/02/23 00:56:54;;;;;;;0.77;0.65;;;;;;;-144.05;77.71;57065.47;5012846;28;20427;-78
2024/02/23 00:59:21;;;;;;;1.05;0.80;;;;;;;-144.05;77.58;57054.88;5012334;28;20026;-79
2024/02/23 01:01:47;;;;;;;0.95;0.82;;;;;;;-144.05;76.11;57037.88;5012300;28;20036;-78
2024/02/23 01:04:13;;;;;;;1.60;0.80;;;;;;;-144.05;75.56;57018.75;5012952;28;20026;-77
2024/02/23 01:06:39;;;;;;;1.55;0.73;;;;;;;-144.05;75.39;57033.63;5011148;28;20352;-78
2024/02/23 01:09:06;;;;;;;2.10;0.75;;;;;;;-144.05;75.52;57029.38;5012436;28;20040;-78
2024/02/23 01:11:32;;;;;;;0.80;0.60;;;;;;;-144.05;75.61;57056.97;5012940;28;20029;-78
2024/02/23 01:13:58;;;;;;;1.23;0.80;;;;;;;-144.05;74.62;57040.00;5011482;28;20720;-77
2024/02/23 01:16:25;;;;;;;1.42;0.90;;;;;;;-144.05;73.59;57040.00;5011195;28;20026;-79
2024/02/23 01:18:51;;;;;;;1.33;0.90;;;;;;;-144.05;73.43;57050.63;5011044;28;20030;-79
2024/02/23 01:21:17;;;;;;;0.60;0.60;;;;;;;-144.05;73.47;57040.00;5012728;28;20037;-77
2024/02/23 01:23:43;;;;;;;1.02;0.80;;;;;;;-144.05;73.58;57014.50;5013685;28;20101;-77
2024/02/23 01:26:09;;;;;;;1.42;0.70;;;;;;;-144.05;73.30;57073.97;5015219;28;20053;-78
2024/02/23 01:28:36;;;;;;;0.95;0.77;;;;;;;-144.05;72.83;57052.75;5012762;28;20026;-78
2024/02/23 01:31:04;;;;;;;2.17;0.75;;;;;;;-144.05;72.82;57069.72;5007182;28;20521;-80
2024/02/23 01:33:30;;;;;;;1.58;0.80;;;;;;;-144.05;72.59;57061.22;5012816;28;20037;-80
2024/02/23 01:35:58;;;;;;;2.60;0.93;;;;;;;-144.05;72.41;57052.75;5012391;28;20061;-77
2024/02/23 01:38:24;;;;;;;0.95;0.80;;;;;;;-144.05;72.61;57065.47;5011890;28;20454;-78
2024/02/23 01:40:51;;;;;;;1.45;0.75;;;;;;;-144.05;72.55;57073.97;5011923;28;20451;-79
2024/02/23 01:43:17;;;;;;;2.25;0.70;;;;;;;-144.05;72.38;57056.97;5012888;28;20084;-80
2024/02/23 01:45:43;;;;;;;1.35;0.90;;;;;;;-144.05;72.26;57048.50;5012012;28;20036;-79
2024/02/23 01:48:10;;;;;;;1.75;0.68;;;;;;;-144.05;72.00;57065.47;5026957;28;20137;-79
2024/02/23 01:50:37;;;;;;;4.43;0.80;;;5.60;99.90;;;-144.05;72.53;57076.09;5010749;28;20128;-78
2024/02/23 01:53:04;;;;;;;2.78;0.80;;;5.50;99.90;;;-144.05;72.01;57048.50;5007965;28;20376;-80
2024/02/23 01:55:31;;;;;;;2.67;0.77;;;;;;;-144.05;72.64;57056.97;5011798;28;20025;-76
2024/02/23 01:57:59;;;;;;;1.52;0.73;;;;;;;-144.05;71.94;57054.88;5011847;28;20513;-79
2024/02/23 02:00:25;;;;;;;3.67;0.90;;;;;;;-144.05;72.09;57023.00;5011818;28;20029;-80
2024/02/23 02:02:52;;;;;;;5.68;1.10;;;;;;;-144.05;72.03;57065.47;5011664;28;20047;-79
2024/02/23 02:05:18;;;;;;;3.20;1.30;;;;;;;-144.05;72.19;57061.22;5011729;28;20165;-76
2024/02/23 02:07:50;;;;;;;4.78;1.25;;;5.70;99.90;;;-144.05;71.92;57061.22;5011115;28;20518;-78
2024/02/23 02:10:17;;;;;;;2.85;1.30;;;5.80;99.90;;;-144.05;72.18;57027.25;5011449;28;20021;-77
2024/02/23 02:12:43;;;;;;;2.70;1.27;;;;;;;-144.05;71.85;57054.88;5009969;28;20022;-77
2024/02/23 02:15:10;;;;;;;3.40;1.00;;;;;;;-144.05;71.75;57059.09;5011780;28;20030;-78
2024/02/23 02:17:36;;;;;;;1.73;0.85;;;;;;;-144.05;70.87;57020.88;5011047;28;20092;-79
2024/02/23 02:20:11;;;;;;;3.95;1.00;;;6.00;99.90;;;-144.05;70.86;57050.63;5005450;28;20732;-80
2024/02/23 02:22:38;;;;;;;2.63;1.15;;;;;;;-144.05;70.82;57035.75;5011068;28;20022;-80
2024/02/23 02:25:06;;;;;;;3.42;1.08;;;;;;;-144.05;71.06;57059.09;5014455;28;20100;-77
2024/02/23 02:27:32;;;;;;;3.75;0.88;;;;;;;-144.05;70.54;57063.34;5011058;28;20026;-77
2024/02/23 02:29:59;;;;;;;11.02;1.58;;;;;;;-144.05;69.92;57035.75;5009686;28;20026;-79
2024/02/23 02:32:25;;;;;;;1.67;0.98;;;;;;;-144.05;70.10;57046.38;5010972;28;20041;-78
2024/02/23 02:34:51;;;;;;;3.92;1.02;;;;;;;-144.05;69.97;57040.00;5010087;28;20045;-78
2024/02/23 02:37:17;;;;;;;1.88;0.65;;;;;;;-144.05;69.97;57050.63;5010734;28;20033;-79
2024/02/23 02:39:43;;;;;;;8.32;0.90;;;;;;;-144.05;70.23;57029.38;5011496;28;20040;-78
2024/02/23 02:42:10;;;;;;;6.75;1.05;;;;;;;-144.05;69.75;57035.75;5009910;28;20030;-78
2024/02/23 02:44:36;;;;;;;3.33;1.20;;;;;;;-144.05;69.28;57052.75;5011365;28;20029;-80
2024/02/23 02:47:02;;;;;;;7.82;1.35;;;;;;;-144.05;69.20;57050.63;5008235;28;20387;-80
2024/02/23 02:49:29;;;;;;;0.82;0.65;;;;;;;-144.05;69.14;57033.63;5009956;28;20045;-80
2024/02/23 02:51:55;;;;;;;5.50;1.30;;;;;;;-144.05;69.06;57025.13;5009772;28;20129;-80
2024/02/23 02:54:21;;;;;;;3.67;0.90;;;;;;;-144.05;68.18;57048.50;5026282;28;20026;-79
2024/02/23 02:56:53;;;;;;;5.80;1.17;;;6.10;99.90;;;-144.05;68.54;57035.75;5012064;28;20407;-78
2024/02/23 02:59:20;;;;;;;2.25;0.85;;;;;;;-144.05;68.54;57020.88;5015076;28;20494;-79
2024/02/23 03:01:49;;;;;;;2.95;1.10;;;;;;;-144.05;68.63;57035.75;5013651;28;20040;-77
2024/02/23 03:04:15;;;;;;;4.30;1.08;;;;;;;-144.05;68.65;57014.50;5014716;28;20041;-78
2024/02/23 03:06:41;;;;;;;5.13;1.17;;;;;;;-144.05;68.82;57065.47;5014536;28;20053;-78
2024/02/23 03:09:08;;;;;;;2.60;0.88;;;;;;;-144.05;68.82;57063.34;5014833;28;20467;-78
2024/02/23 03:11:34;;;;;;;3.00;1.00;;;;;;;-144.05;68.96;57048.50;5014703;28;20436;-78
2024/02/23 03:14:00;;;;;;;4.45;0.80;;;;;;;-144.05;69.33;57027.25;5014792;28;20101;-79
2024/02/23 03:16:27;;;;;;;3.75;1.02;;;;;;;-144.05;69.12;57025.13;5013394;28;20112;-77
2024/02/23 03:18:54;;;;;;;4.22;1.23;;;;;;;-144.05;69.08;57031.50;5014623;28;20072;-79
2024/02/23 03:21:20;;;;;;;4.53;0.90;;;;;;;-144.05;69.27;57033.63;5013680;28;20457;-78
2024/02/23 03:23:46;;;;;;;6.35;1.10;;;;;;;-144.05;69.53;57065.47;5014629;28;20044;-78
2024/02/23 03:26:13;;;;;;;2.85;0.73;;;;;;;-144.05;69.44;57059.09;5017762;28;20520;-79
2024/02/23 03:28:39;;;;;;;5.22;1.15;;;;;;;-144.05;69.13;57044.25;5014442;28;20514;-78
2024/02/23 03:31:06;;;;;;;4.57;0.95;;;;;;;-144.05;69.14;57023.00;5014799;28;20105;-79
2024/02/23 03:33:32;;;;;;;6.85;1.25;;;3.80;99.90;;;-144.05;69.25;57046.38;5021053;28;20025;-78
2024/02/23 03:35:58;;;;;;;4.00;0.80;;;5.70;99.90;;;-144.05;69.31;57054.88;5021125;28;20049;-80
2024/02/23 03:38:24;;;;;;;6.00;1.10;;;;;;;-144.05;69.21;57071.84;5031187;28;20026;-78
2024/02/23 03:40:51;;;;;;;5.95;1.17;;;;;;;-144.05;69.45;57065.47;5013542;28;20034;-80
2024/02/23 03:43:17;;;;;;;2.97;0.75;;;;;;;-144.05;69.72;57063.34;5014375;28;20042;-77
2024/02/23 03:45:43;;;;;;;6.40;0.98;;;;;;;-144.05;69.52;57061.22;5014484;28;20153;-78
2024/02/23 03:48:09;;;;;;;7.43;0.90;;;;;;;-144.05;69.53;57035.75;5014019;28;20079;-77
2024/02/23 03:50:35;;;;;;;2.63;0.90;;;;;;;-144.05;69.71;57052.75;5014580;28;20022;-80
2024/02/23 03:53:03;;;;;;;4.90;0.80;;;;;;;-144.05;69.45;57059.09;5014136;28;20113;-78
2024/02/23 03:55:29;;;;;;;4.53;1.15;;;;;;;-144.05;69.45;57025.13;5012875;28;20392;-79
2024/02/23 03:57:55;;;;;;;2.22;0.88;;;;;;;-144.05;69.58;57050.63;5013388;28;20169;-78
2024/02/23 04:00:23;;;;;;;7.75;1.13;;;;;;;-144.05;69.21;57054.88;5014774;28;20329;-77
2024/02/23 04:02:49;;;;;;;4.18;1.00;;;;;;;-144.05;69.21;57044.25;5014387;28;20033;-77
2024/02/23 04:05:15;;;;;;;3.03;1.10;;;;;;;-144.05;68.97;57035.75;5014243;28;20063;-78
2024/02/23 04:07:42;;;;;;;3.35;1.10;;;;;;;-144.05;68.72;57046.38;5012266;28;20030;-79
2024/02/23 04:10:08;;;;;;;6.65;1.67;;;;;;;-144.05;68.77;57052.75;5029822;28;20072;-79
2024/02/23 04:12:34;;;;;;;4.72;1.42;;;;;;;-144.05;68.89;57048.50;5029245;28;20032;-77
2024/02/23 04:15:01;;;;;;;6.78;1.30;;;;;;;-144.05;68.73;57023.00;5013732;28;20030;-78
2024/02/23 04:17:27;;;;;;;4.15;1.42;;;;;;;-144.05;68.49;57040.00;5014661;28;20148;-78
2024/02/23 04:19:53;;;;;;;2.33;1.10;;;;;;;-144.05;68.17;57084.59;5014666;28;20112;-79
2024/02/23 04:22:19;;;;;;;5.38;1.30;;;;;;;-144.05;67.80;57059.09;5032324;28;20053;-77
2024/02/23 04:24:45;;;;;;;3.85;0.90;;;;;;;-144.05;67.83;57061.22;5020624;28;20105;-77
2024/02/23 04:27:11;;;;;;;2.95;1.00;;;6.90;99.90;;;-144.05;67.95;57061.22;5015251;28;20057;-77
2024/02/23 04:29:38;;;;;;;3.92;0.93;;;;;;;-144.05;68.05;57050.63;5016879;28;20467;-76
2024/02/23 04:32:05;;;;;;;2.35;0.90;;;;;;;-144.05;67.67;57027.25;5017007;28;20056;-79
2024/02/23 04:34:31;;;;;;;4.60;1.00;;;5.90;99.90;;;-144.05;67.36;57076.09;5016592;28;20061;-76
2024/02/23 04:36:57;;;;;;;4.57;1.05;;;;;;;-144.05;67.29;57014.50;5014327;28;20069;-80
2024/02/23 04:39:23;;;;;;;3.75;0.77;;;;;;;-144.05;67.30;57020.88;5014469;28;20117;-79
2024/02/23 04:41:50;;;;;;;2.63;0.88;;;;;;;-144.05;66.75;57048.50;5015801;28;20075;-77
2024/02/23 04:44:16;;;;;;;4.22;0.90;;;6.00;99.90;;;-144.05;67.19;57061.22;5016185;28;20025;-77
2024/02/23 04:46:43;;;;;;;5.68;0.80;;;;;;;-144.05;67.13;57025.13;5016416;28;20045;-75
2024/02/23 04:49:11;;;;;;;7.90;1.15;;;;;;;-144.05;67.00;57084.59;5018437;28;20030;-77
2024/02/23 04:51:38;;;;;;;3.22;0.75;;;;;;;-144.05;66.79;57059.09;5033563;28;20030;-76
2024/02/23 04:54:04;;;;;;;4.63;0.90;;;;;;;-144.05;66.63;57044.25;5015585;28;20026;-77
2024/02/23 04:56:30;;;;;;;5.03;0.90;;;;;;;-144.05;66.58;57029.38;5016151;28;20045;-79
2024/02/23 04:58:57;;;;;;;3.97;0.85;;;;;;;-144.05;66.81;57027.25;5018582;28;20026;-78
2024/02/23 05:01:23;;;;;;;4.97;1.02;;;;;;;-144.05;66.49;57029.38;5016681;28;20041;-78
2024/02/23 05:03:49;;;;;;;4.13;0.88;;;;;;;-144.05;66.19;57061.22;5015563;28;20105;-80
2024/02/23 05:06:15;;;;;;;4.15;1.08;;;;;;;-144.05;66.35;57035.75;5014236;28;20026;-79
2024/02/23 05:08:42;;;;;;;5.85;1.17;;;;;;;-144.05;66.33;57035.75;5015919;28;20440;-79
2024/02/23 05:11:09;;;;;;;5.97;1.00;;;;;;;-144.05;65.70;57056.97;5015774;28;20025;-79
2024/02/23 05:13:36;;;;;;;5.28;1.98;;;;;;;-144.05;66.02;57025.13;5013894;28;20046;-79
2024/02/23 05:16:02;;;;;;;2.58;0.80;;;5.80;99.90;;;-144.05;66.34;57054.88;5015068;28;20029;-78
2024/02/23 05:18:29;;;;;;;4.57;1.00;;;;;;;-144.05;66.27;57014.50;5014490;28;20453;-77
2024/02/23 05:20:55;;;;;;;6.43;1.05;;;;;;;-144.05;65.63;57031.50;5014192;28;20025;-80
2024/02/23 05:23:21;;;;;;;1.60;0.60;;;;;;;-144.05;65.65;57080.34;5013904;28;20057;-79
2024/02/23 05:25:47;;;;;;;6.00;0.70;;;7.20;99.90;;;-144.05;65.75;57018.75;5019431;28;20068;-79
2024/02/23 05:28:13;;;;;;;2.95;0.70;;;6.80;99.90;;;-144.05;65.76;57001.75;5013670;28;20061;-77
2024/02/23 05:30:39;;;;;;;3.28;0.68;;;;;;;-144.05;65.75;57033.63;5019122;28;20036;-79
2024/02/23 05:33:05;;;;;;;5.00;0.85;;;;;;;-144.05;65.61;57042.13;5017715;28;20026;-78
2024/02/23 05:35:31;;;;;;;4.15;0.70;;;;;;;-144.05;65.95;57040.00;5015645;28;20056;-78
2024/02/23 05:37:58;;;;;;;6.22;1.15;;;;;;;-144.05;66.13;57035.75;5015733;28;20077;-76
2024/02/23 05:40:24;;;;;;;3.03;0.73;;;;;;;-144.05;65.93;57044.25;5030088;28;20120;-80
2024/02/23 05:42:51;;;;;;;7.63;1.20;;;;;;;-144.05;66.00;57061.22;5014218;28;20025;-78
2024/02/23 05:45:17;;;;;;;5.40;0.82;;;;;;;-144.05;65.53;57056.97;5015730;28;20034;-81
2024/02/23 05:47:43;;;;;;;3.35;1.23;;;;;;;-144.05;65.55;57040.00;5013506;28;20048;-78
2024/02/23 05:50:10;;;;;;;5.55;1.30;;;;;;;-144.05;65.64;57059.09;5014791;28;20105;-81
2024/02/23 05:52:36;;;;;;;5.78;0.95;;;;;;;-144.05;65.36;57040.00;5014747;28;20343;-78
2024/02/23 05:55:03;;;;;;;4.70;1.35;;;5.80;99.90;;;-144.05;65.48;57033.63;5008198;28;20069;-78
2024/02/23 05:57:30;;;;;;;4.15;1.30;;;;;;;-144.05;65.55;57042.13;5013055;28;20033;-77
2024/02/23 05:59:56;;;;;;;4.40;1.23;;;;;;;-144.05;65.62;57035.75;5014602;28;20444;-78
2024/02/23 06:02:23;;;;;;;6.15;1.52;;;;;;;-144.05;65.55;57035.75;5014142;28;20033;-79
2024/02/23 06:04:50;;;;;;;7.05;1.10;;;;;;;-144.05;65.73;57061.22;5014379;28;20045;-77
2024/02/23 06:07:16;;;;;;;8.43;1.20;;;;;;;-144.05;65.82;57042.13;5014858;28;20034;-76
2024/02/23 06:09:43;;;;;;;5.55;1.95;;;5.40;99.90;;;-144.05;65.92;57082.47;5013382;28;20368;-78
2024/02/23 06:12:09;;;;;;;8.05;1.48;;;2.20;99.90;;;-144.05;66.21;57050.63;5023744;28;20038;-80
2024/02/23 06:14:36;;;;;;;4.32;1.02;;;;;;;-144.05;66.18;57056.97;5021196;28;20026;-79
2024/02/23 06:17:03;;;;;;;5.85;0.93;;;5.30;99.90;;;-144.05;65.96;57046.38;5018961;28;20064;-80
2024/02/23 06:19:29;;;;;;;5.57;1.00;;;1.80;99.90;;;-144.05;65.65;57065.47;5027666;28;20412;-78
2024/02/23 06:21:55;;;;;;;3.55;0.90;;;;;;;-144.05;65.70;57025.13;5035224;28;20022;-77
2024/02/23 06:24:22;;;;;;;5.28;1.95;;;;;;;-144.05;65.63;57046.38;5027827;28;20018;-78
2024/02/23 06:26:49;;;;;;;9.07;1.10;;;2.10;99.90;;;-144.05;65.67;57061.22;5018691;28;20052;-78
2024/02/23 06:29:15;;;;;;;8.27;1.67;;;1.50;99.90;;;-144.05;65.44;57061.22;5014014;28;20092;-78
2024/02/23 06:31:41;;;;;;;4.65;1.00;;;;;;;-144.05;65.81;57088.84;5013933;28;20033;-80
2024/02/23 06:34:08;;;;;;;4.40;0.60;;;;;;;-144.05;65.69;57046.38;5016934;28;20044;-79
2024/02/23 06:36:35;;;;;;;2.33;0.77;;;5.30;99.90;;;-144.05;65.69;57033.63;5013771;28;20058;-77
2024/02/23 06:39:02;;;;;;;7.03;1.42;;;;;;;-144.05;65.82;57067.59;5014368;28;20026;-80
2024/02/23 06:41:28;;;;;;;4.43;0.60;;;2.20;99.90;;;-144.05;65.91;57078.22;5014606;28;20112;-78
2024/02/23 06:43:54;;;;;;;4.43;1.00;;;5.40;99.90;;;-144.05;65.90;57044.25;5013373;28;20076;-78
2024/02/23 06:46:21;;;;;;;7.32;0.95;;;;;;;-144.05;65.26;57035.75;5012200;28;20503;-80
2024/02/23 06:48:47;;;;;;;4.30;0.90;;;2.00;99.90;;;-144.05;65.11;57040.00;5013535;28;20022;-78
2024/02/23 06:51:14;;;;;;;2.13;0.88;;;;;;;-144.05;65.05;57027.25;5014483;28;20022;-78
2024/02/23 06:53:40;;;;;;;6.28;0.98;;;;;;;-144.05;65.17;57088.84;5013886;28;20029;-81
2024/02/23 06:56:06;;;;;;;6.15;0.98;;;;;;;-144.05;65.13;57042.13;5013118;28;20084;-79
2024/02/23 06:58:32;;;;;;;4.72;0.98;;;;;;;-144.05;64.89;57042.13;5013865;28;20028;-81
2024/02/23 07:01:00;;;;;;;4.35;0.95;;;;;;;-144.05;64.92;57061.22;5014402;28;20041;-80
2024/02/23 07:03:26;;;;;;;5.05;0.90;;;;;;;-144.05;64.55;57020.88;5014733;28;20060;-81
2024/02/23 07:05:52;;;;;;;8.02;1.42;;;;;;;-144.05;64.73;57048.50;5019231;28;20025;-83
2024/02/23 07:08:19;;;;;;;4.28;1.08;;;;;;;-144.05;64.91;57056.97;5016525;28;20676;-81
2024/02/23 07:10:45;;;;;;;3.40;1.25;;;2.10;99.90;;;-144.05;65.04;57029.38;5015406;28;20052;-81
2024/02/23 07:13:11;;;;;;;8.18;1.10;;;2.50;99.90;;;-144.05;65.24;57071.84;5030019;28;20022;-81
2024/02/23 07:15:37;;;;;;;3.90;1.42;;;2.60;99.90;;;-144.05;65.63;57067.59;5014117;28;20377;-80
2024/02/23 07:18:03;;;;;;;7.70;1.40;;;2.30;99.90;;;-144.05;65.50;57042.13;5026850;28;20056;-80
2024/02/23 07:20:29;;;;;;;2.42;0.80;;;2.40;99.90;;;-144.05;65.43;57065.47;5024840;28;20038;-80
2024/02/23 07:22:56;;;;;;;4.65;1.10;;;;;;;-144.05;64.61;57071.84;5026196;28;20053;-80
2024/02/23 07:25:22;;;;;;;6.55;1.35;;;;;;;-144.05;64.40;57050.63;5029235;28;20026;-78
2024/02/23 07:27:49;;;;;;;5.28;1.00;;;;;;;-144.05;63.78;57056.97;5017263;28;20101;-79
2024/02/23 07:30:16;;;;;;;6.57;1.00;;;7.10;99.90;;;-144.05;63.86;57052.75;5018555;28;20104;-80
2024/02/23 07:32:44;;;;;;;3.05;0.90;;;;;;;-144.05;63.46;57025.13;5017050;28;20030;-80
2024/02/23 07:35:10;;;;;;;6.75;1.10;;;3.90;99.90;;;-144.05;63.12;57059.09;5016299;28;20389;-80
2024/02/23 07:37:37;;;;;;;4.18;0.98;;;;;;;-144.05;61.65;57042.13;5014574;28;20096;-80
2024/02/23 07:40:04;;;;;;;6.32;0.73;;;6.70;99.90;;;-144.05;61.58;57027.25;5009627;28;20491;-79
2024/02/23 07:42:35;;;;;;;8.65;1.88;;;;;;;-144.05;61.00;57033.63;5018960;28;20030;-80
2024/02/23 07:45:04;;;;;;;6.63;0.88;;;6.50;99.90;;;-144.05;60.27;57033.63;5020962;28;20026;-78
2024/02/23 07:47:31;;;;;;;3.65;0.75;;;3.80;99.90;;;-144.05;61.22;57046.38;5019821;28;20105;-78
2024/02/23 07:49:58;;;;;;;6.18;1.23;;;6.20;99.90;;;-144.05;60.28;57050.63;5021234;28;20285;-78
2024/02/23 07:52:25;;;;;;;5.20;0.90;;;;;;;-144.05;61.64;56991.13;5021164;28;20492;-79
2024/02/23 07:54:55;;;;;;;3.53;0.90;;;7.30;99.90;;;-144.05;61.00;57018.75;5020051;28;20075;-82
2024/02/23 07:57:21;;;;;;;5.25;1.33;;;6.40;99.90;;;-144.05;60.80;57035.75;5021156;28;20026;-80
2024/02/23 07:59:48;;;;;;;3.55;0.90;;;6.70;99.90;;;-144.05;61.59;57033.63;5020986;28;20033;-79
2024/02/23 08:02:15;;;;;;;6.22;0.93;;;7.00;99.90;;;-144.05;61.52;57050.63;5021618;28;20045;-78
2024/02/23 08:04:42;;;;;;;6.63;1.02;;;6.70;99.90;;;-144.05;61.99;57014.50;5036640;28;20030;-80
2024/02/23 08:07:08;;;;;;;3.83;0.85;;;7.10;99.90;;;-144.05;62.17;57048.50;5019624;28;20049;-81
2024/02/23 08:09:35;;;;;;;3.20;1.13;;;;;;;-144.05;62.04;57029.38;5018431;28;20531;-79
2024/02/23 08:12:00;;;;;;;2.28;0.75;;;5.00;99.90;;;-144.05;61.15;57056.97;5017240;28;20029;-78
2024/02/23 08:14:26;;;;;;;2.92;1.13;;;;;;;-144.05;61.33;57029.38;5018291;28;20399;-77
2024/02/23 08:16:52;;;;;;;4.65;0.93;;;7.20;99.90;;;-144.05;61.00;57040.00;5023218;28;20390;-78
2024/02/23 08:19:18;;;;;;;6.88;1.00;;;4.50;99.90;;;-144.05;60.67;57027.25;5018937;28;20211;-77
2024/02/23 08:21:44;;;;;;;2.83;0.70;;;;;;;-144.05;60.69;57006.00;5018148;28;20097;-78
2024/02/23 08:24:10;;;;;;;4.97;0.90;;;6.50;99.90;;;-144.05;60.22;57010.25;5022023;28;20053;-77
2024/02/23 08:26:38;;;;;;;3.80;0.88;;;6.40;99.90;;;-144.05;60.06;57018.75;5021549;28;20040;-80
2024/02/23 08:29:05;;;;;;;6.63;1.25;;;5.90;99.90;;;-144.05;60.48;57018.75;5012085;28;20030;-78
2024/02/23 08:31:31;;;;;;;6.78;1.00;;;8.40;99.90;;;-144.05;60.63;57040.00;5019951;28;20116;-78
2024/02/23 08:33:57;;;;;;;4.90;0.93;;;6.60;99.90;;;-144.05;60.02;57042.13;5020322;28;20022;-80
2024/02/23 08:36:23;;;;;;;5.00;1.05;;;;;;;-144.05;59.91;57044.25;5019585;28;20033;-77
2024/02/23 08:38:49;;;;;;;6.63;1.63;;;6.60;99.90;;;-144.05;60.74;57035.75;5019846;28;20049;-77
2024/02/23 08:41:15;;;;;;;5.18;1.17;;;;;;;-144.05;59.82;57020.88;5018730;28;20091;-77
2024/02/23 08:43:41;;;;;;;2.40;0.82;;;;;;;-144.05;59.76;57027.25;5034117;28;20471;-80
2024/02/23 08:46:08;;;;;;;5.35;1.08;;;;;;;-144.05;59.89;57048.50;5018994;28;20454;-78
2024/02/23 08:48:33;;;;;;;4.70;0.85;;;4.40;99.90;;;-144.05;59.30;57031.50;5017732;28;20118;-82
2024/02/23 08:51:00;;;;;;;4.47;1.08;;;;;;;-144.05;59.97;57016.63;5018606;28;20503;-80
2024/02/23 08:53:25;;;;;;;7.25;1.10;;;7.40;99.90;;;-144.05;60.91;57048.50;5017295;28;20079;-79
2024/02/23 08:55:51;;;;;;;5.43;0.95;;;3.70;99.90;;;-144.05;61.39;57027.25;5018811;28;20026;-78
2024/02/23 08:58:18;;;;;;;4.32;1.23;;;;;;;-144.05;61.63;57054.88;5018898;28;20492;-79
2024/02/23 09:00:44;;;;;;;4.35;0.70;;;;;;;-144.05;62.25;57061.22;5017067;28;20022;-79
2024/02/23 09:03:10;;;;;;;3.33;0.80;;;;;;;-144.05;60.36;57052.75;5016946;28;20079;-77
2024/02/23 09:05:36;;;;;;;4.88;1.48;;;;;;;-144.05;59.99;57048.50;5016385;28;20045;-76
2024/02/23 09:08:02;;;;;;;3.58;0.82;;;8.50;99.90;;;-144.05;59.53;57050.63;5031763;28;20101;-78
2024/02/23 09:10:28;;;;;;;4.47;1.00;;;;;;;-144.05;60.23;56976.28;5026410;28;20514;-79
2024/02/23 09:12:54;;;;;;;3.42;1.05;;;7.10;99.90;;;-144.05;59.47;57040.00;5016358;28;20080;-78
2024/02/23 09:15:20;;;;;;;3.30;0.70;;;;;;;-144.05;60.42;57044.25;5017319;28;20029;-79
2024/02/23 09:17:46;;;;;;;4.93;0.93;;;8.40;99.90;;;-144.05;61.01;57014.50;5016832;28;20025;-78
2024/02/23 09:20:12;;;;;;;4.40;1.10;;;;;;;-144.05;60.93;57014.50;5016904;28;20072;-78
2024/02/23 09:22:39;;;;;;;5.75;1.20;;;;;;;-144.05;60.96;57023.00;5032292;28;20050;-76
2024/02/23 09:25:08;;;;;;;3.65;1.20;;;7.10;99.90;;;-144.05;60.73;57027.25;5021759;28;20026;-78
2024/02/23 09:27:38;;;;;;;6.18;1.00;;;;;;;-144.05;61.13;57001.75;5017881;28;20029;-78
2024/02/23 09:30:06;;;;;;;6.95;1.00;;;;;;;-144.05;60.74;57027.25;5010308;28;20013;-78
2024/02/23 09:32:32;;;;;;;5.13;1.00;;;;;;;-144.05;61.29;57001.75;5017960;28;20060;-78
2024/02/23 09:34:58;;;;;;;4.75;1.08;;;6.70;99.90;;;-144.05;60.87;57027.25;5016854;28;20029;-79
2024/02/23 09:37:24;;;;;;;4.38;1.10;;;;;;;-144.05;60.63;57020.88;5017891;28;20030;-81
2024/02/23 09:39:51;;;;;;;6.45;1.15;;;;;;;-144.05;60.93;57012.38;5017483;28;20770;-79
2024/02/23 09:42:19;;;;;;;10.75;1.30;;;;;;;-144.05;60.53;57054.88;5018211;28;20025;-78
2024/02/23 09:44:47;;;;;;;4.30;1.45;;;5.80;99.90;;;-144.05;60.76;56980.53;5016714;28;20141;-79
2024/02/23 09:47:14;;;;;;;4.45;1.10;;;7.00;99.90;;;-144.05;59.82;57042.13;5017956;28;20396;-79
2024/02/23 09:49:41;;;;;;;6.97;1.23;;;7.40;99.90;;;-144.05;60.31;57023.00;5017055;28;20022;-79
2024/02/23 09:52:10;;;;;;;7.80;1.17;;;7.40;99.90;;;-144.05;60.72;57033.63;5018670;28;20045;-78
2024/02/23 09:54:39;;;;;;;6.05;1.10;;;6.30;99.90;;;-144.05;60.34;57042.13;5033012;28;20148;-81
2024/02/23 09:57:10;;;;;;;4.32;1.20;;;7.90;99.90;;;-144.05;60.43;57044.25;5011073;28;20018;-79
2024/02/23 09:59:37;;;;;;;4.18;1.08;;;;;;;-144.05;60.28;57033.63;5033288;28;20387;-79
2024/02/23 10:02:15;;;;;;;3.20;0.98;;;7.50;99.90;;;-144.05;60.47;57014.50;5010922;28;20399;-78
2024/02/23 10:04:43;;;;;;;4.55;0.93;;;6.30;99.90;;;-144.05;60.25;57065.47;5016797;28;20026;-80
2024/02/23 10:07:10;;;;;;;2.50;0.70;;;;;;;-144.05;59.48;57018.75;5016449;28;20030;-81
2024/02/23 10:09:37;;;;;;;5.38;0.90;;;6.20;99.90;;;-144.05;59.48;57001.75;5017037;28;20030;-80
2024/02/23 10:12:03;;;;;;;8.20;2.38;;;8.00;99.90;;;-144.05;60.12;57031.50;5011130;28;20395;-80
2024/02/23 10:14:29;;;;;;;2.53;1.02;;;7.20;99.90;;;-144.05;58.96;57014.50;5018440;28;20021;-81
2024/02/23 10:16:56;;;;;;;5.63;0.80;;;;;;;-144.05;59.64;57006.00;5018376;28;20033;-79
2024/02/23 10:19:28;;;;;;;5.65;0.75;;;7.60;99.90;;;-144.05;59.73;57018.75;5019050;28;20048;-80
2024/02/23 10:21:55;;;;;;;6.15;1.48;;;6.70;99.90;;;-144.05;59.14;56997.50;5016305;28;20024;-79
2024/02/23 10:24:23;;;;;;;5.75;0.73;;;7.00;99.90;;;-144.05;59.38;57035.75;5022088;28;20049;-77
2024/02/23 10:26:51;;;;;;;3.97;0.82;;;;;;;-144.05;59.60;57046.38;5023509;28;20029;-81
2024/02/23 10:29:17;;;;;;;4.40;0.80;;;6.90;99.90;;;-144.05;59.19;57018.75;5033945;28;20097;-78
2024/02/23 10:31:49;;;;;;;5.53;0.80;;;7.70;99.90;;;-144.05;59.25;57031.50;5032861;28;20053;-79
2024/02/23 10:34:20;;;;;;;3.42;0.80;;;7.30;99.90;;;-144.05;59.99;57018.75;5033040;28;20029;-79
2024/02/23 10:36:47;;;;;;;3.03;0.75;;;;;;;-144.05;59.85;57027.25;5031083;28;20026;-79
2024/02/23 10:39:18;;;;;;;5.28;0.80;;;7.30;99.90;;;-144.05;59.97;57018.75;5016330;28;20029;-77
2024/02/23 10:42:00;;;;;;;7.82;1.10;;;7.80;99.90;;;-144.05;60.08;57042.13;5015413;28;20030;-79
2024/02/23 10:44:28;;;;;;;5.13;1.48;;;7.50;99.90;;;-144.05;59.84;57025.13;5031494;28;20080;-77
2024/02/23 10:46:55;;;;;;;8.38;0.93;;;7.00;99.90;;;-144.05;60.60;57018.75;5015698;28;20483;-76
2024/02/23 10:49:26;;;;;;;3.38;1.10;;;8.20;99.90;;;-144.05;60.84;57042.13;5016464;28;20025;-78
2024/02/23 10:51:54;;;;;;;5.50;1.13;;;7.00;99.90;;;-144.05;60.92;57025.13;5019787;28;20180;-78